KAC501 OMDB-OMAA
Flight info
| Callsign | KAC501 |
|---|---|
| Flight time | 0h 21m |
| Altitude | 19000 |
| Route | DB612 DCT TUDIS DCT VEKAL DCT ABM27 DCT SINPU/N0393F180 DCT AA817 DCT AD807 DCT AA514 DCT AA562 |
| Aircraft | A320/M-SDE3FGHIRWY/LB1 |
Departure
| Time | 2026-04-23 22:57 |
|---|---|
| Airport | Dubai International Airport (OMDB) |
Arrival
| Time | 2026-04-23 23:18 |
|---|---|
| Airport | Zayed International Airport (OMAA) |
| Time | Latitude | Longitude | Altitude | Speed | Heading |
|---|---|---|---|---|---|
| 2026-04-23 22:23 | 25.24271 | 55.37522 | 38 ft | 0 kts | 207° |
| 2026-04-23 22:49 | 25.24277 | 55.37526 | 37 ft | 2 kts | 205° |
| 2026-04-23 22:50 | 25.24292 | 55.37534 | 38 ft | 2 kts | 206° |
| 2026-04-23 22:50 | 25.24306 | 55.37543 | 35 ft | 2 kts | 213° |
| 2026-04-23 22:50 | 25.24320 | 55.37553 | 37 ft | 2 kts | 215° |
| 2026-04-23 22:50 | 25.24333 | 55.37563 | 37 ft | 2 kts | 189° |
| 2026-04-23 22:51 | 25.24349 | 55.37560 | 35 ft | 2 kts | 143° |
| 2026-04-23 22:51 | 25.24361 | 55.37548 | 37 ft | 2 kts | 128° |
| 2026-04-23 22:51 | 25.24369 | 55.37537 | 36 ft | 1 kts | 120° |
| 2026-04-23 22:51 | 25.24370 | 55.37536 | 34 ft | 0 kts | 120° |
| 2026-04-23 22:53 | 25.24363 | 55.37549 | 37 ft | 7 kts | 121° |
| 2026-04-23 22:53 | 25.24340 | 55.37590 | 37 ft | 5 kts | 122° |
| 2026-04-23 22:53 | 25.24315 | 55.37634 | 37 ft | 9 kts | 122° |
| 2026-04-23 22:53 | 25.24285 | 55.37689 | 39 ft | 9 kts | 121° |
| 2026-04-23 22:54 | 25.24267 | 55.37755 | 39 ft | 11 kts | 79° |
| 2026-04-23 22:54 | 25.24324 | 55.37812 | 37 ft | 6 kts | 33° |
| 2026-04-23 22:54 | 25.24420 | 55.37885 | 20 ft | 21 kts | 34° |
| 2026-04-23 22:54 | 25.24531 | 55.37969 | 24 ft | 17 kts | 34° |
| 2026-04-23 22:55 | 25.24615 | 55.38032 | 31 ft | 12 kts | 33° |
| 2026-04-23 22:55 | 25.24679 | 55.38077 | 36 ft | 10 kts | 32° |
| 2026-04-23 22:55 | 25.24761 | 55.38112 | 35 ft | 13 kts | 341° |
| 2026-04-23 22:55 | 25.24806 | 55.38023 | 33 ft | 11 kts | 297° |
| 2026-04-23 22:56 | 25.24855 | 55.37933 | 33 ft | 23 kts | 301° |
| 2026-04-23 22:56 | 25.25088 | 55.37512 | 32 ft | 102 kts | 301° |
| 2026-04-23 22:56 | 25.25575 | 55.36643 | 19 ft | 161 kts | 302° |
| 2026-04-23 22:56 | 25.26212 | 55.35540 | 586 ft | 169 kts | 304° |
| 2026-04-23 22:57 | 25.26847 | 55.34433 | 1304 ft | 173 kts | 304° |
| 2026-04-23 22:57 | 25.27496 | 55.33261 | 1779 ft | 190 kts | 303° |
| 2026-04-23 22:57 | 25.28194 | 55.31987 | 2316 ft | 196 kts | 302° |
| 2026-04-23 22:57 | 25.28872 | 55.30681 | 2942 ft | 196 kts | 292° |
| 2026-04-23 22:58 | 25.29133 | 55.29221 | 3587 ft | 194 kts | 268° |
| 2026-04-23 22:58 | 25.28839 | 55.27750 | 4094 ft | 202 kts | 245° |
| 2026-04-23 22:58 | 25.27913 | 55.26499 | 4359 ft | 226 kts | 214° |
| 2026-04-23 22:58 | 25.26395 | 55.25738 | 4701 ft | 253 kts | 204° |
| 2026-04-23 22:59 | 25.24710 | 55.24979 | 5288 ft | 267 kts | 204° |
| 2026-04-23 22:59 | 25.22979 | 55.24198 | 6187 ft | 269 kts | 204° |
| 2026-04-23 22:59 | 25.21241 | 55.23413 | 7095 ft | 271 kts | 204° |
| 2026-04-23 22:59 | 25.19491 | 55.22622 | 7998 ft | 273 kts | 204° |
| 2026-04-23 23:00 | 25.17728 | 55.21824 | 8905 ft | 275 kts | 204° |
| 2026-04-23 23:00 | 25.15929 | 55.21006 | 9670 ft | 288 kts | 204° |
| 2026-04-23 23:00 | 25.13985 | 55.20114 | 9923 ft | 319 kts | 204° |
| 2026-04-23 23:00 | 25.11826 | 55.19125 | 10003 ft | 351 kts | 204° |
| 2026-04-23 23:01 | 25.09465 | 55.18046 | 10027 ft | 382 kts | 204° |
| 2026-04-23 23:01 | 25.06916 | 55.16886 | 10068 ft | 406 kts | 204° |
| 2026-04-23 23:01 | 25.04370 | 55.15733 | 10132 ft | 385 kts | 204° |
| 2026-04-23 23:01 | 25.01980 | 55.14658 | 9959 ft | 366 kts | 204° |
| 2026-04-23 23:02 | 24.99704 | 55.13635 | 10024 ft | 341 kts | 204° |
| 2026-04-23 23:02 | 24.97575 | 55.12676 | 10033 ft | 320 kts | 204° |
| 2026-04-23 23:02 | 24.95571 | 55.11775 | 10033 ft | 302 kts | 204° |
| 2026-04-23 23:02 | 24.93680 | 55.10922 | 10033 ft | 285 kts | 204° |
| 2026-04-23 23:03 | 24.91893 | 55.10113 | 10028 ft | 270 kts | 204° |
| 2026-04-23 23:03 | 24.90206 | 55.09348 | 10032 ft | 255 kts | 204° |
| 2026-04-23 23:03 | 24.88612 | 55.08624 | 10032 ft | 241 kts | 204° |
| 2026-04-23 23:03 | 24.87105 | 55.07942 | 10031 ft | 227 kts | 204° |
| 2026-04-23 23:04 | 24.85688 | 55.07304 | 10033 ft | 216 kts | 204° |
| 2026-04-23 23:04 | 24.84146 | 55.06602 | 10042 ft | 264 kts | 204° |
| 2026-04-23 23:04 | 24.82319 | 55.05764 | 10030 ft | 295 kts | 204° |
| 2026-04-23 23:04 | 24.80496 | 55.04866 | 10020 ft | 278 kts | 210° |
| 2026-04-23 23:05 | 24.78786 | 55.03757 | 10024 ft | 295 kts | 212° |
| 2026-04-23 23:05 | 24.77061 | 55.02625 | 10021 ft | 286 kts | 212° |
| 2026-04-23 23:05 | 24.75301 | 55.01472 | 10018 ft | 291 kts | 212° |
| 2026-04-23 23:05 | 24.73580 | 55.00347 | 10026 ft | 294 kts | 212° |
| 2026-04-23 23:06 | 24.71847 | 54.99213 | 10017 ft | 284 kts | 212° |
| 2026-04-23 23:06 | 24.70163 | 54.98113 | 10019 ft | 280 kts | 212° |
| 2026-04-23 23:06 | 24.68491 | 54.97021 | 10019 ft | 279 kts | 212° |
| 2026-04-23 23:06 | 24.66822 | 54.95929 | 10018 ft | 279 kts | 212° |
| 2026-04-23 23:07 | 24.65172 | 54.94851 | 10013 ft | 279 kts | 212° |
| 2026-04-23 23:07 | 24.63503 | 54.93761 | 10010 ft | 279 kts | 212° |
| 2026-04-23 23:07 | 24.61831 | 54.92670 | 10009 ft | 280 kts | 211° |
| 2026-04-23 23:07 | 24.60155 | 54.91575 | 9855 ft | 278 kts | 211° |
| 2026-04-23 23:08 | 24.58496 | 54.90493 | 9467 ft | 277 kts | 211° |
| 2026-04-23 23:08 | 24.56845 | 54.89417 | 9076 ft | 276 kts | 211° |
| 2026-04-23 23:08 | 24.55200 | 54.88343 | 8686 ft | 274 kts | 211° |
| 2026-04-23 23:08 | 24.53564 | 54.87275 | 8295 ft | 273 kts | 211° |
| 2026-04-23 23:09 | 24.51937 | 54.86212 | 7899 ft | 272 kts | 211° |
| 2026-04-23 23:09 | 24.50314 | 54.85154 | 7506 ft | 271 kts | 211° |
| 2026-04-23 23:09 | 24.48700 | 54.84101 | 7116 ft | 269 kts | 211° |
| 2026-04-23 23:09 | 24.47057 | 54.83121 | 6720 ft | 269 kts | 200° |
| 2026-04-23 23:10 | 24.45854 | 54.82848 | 6600 ft | 268 kts | 185° |
| 2026-04-23 23:10 | 24.43415 | 54.83488 | 6069 ft | 278 kts | 150° |
| 2026-04-23 23:10 | 24.42018 | 54.84965 | 5586 ft | 283 kts | 130° |
| 2026-04-23 23:10 | 24.40810 | 54.86676 | 5155 ft | 282 kts | 129° |
| 2026-04-23 23:11 | 24.39611 | 54.88377 | 4720 ft | 281 kts | 129° |
| 2026-04-23 23:11 | 24.38433 | 54.90033 | 4359 ft | 277 kts | 131° |
| 2026-04-23 23:11 | 24.36944 | 54.91305 | 3899 ft | 268 kts | 158° |
| 2026-04-23 23:11 | 24.35166 | 54.91654 | 3660 ft | 248 kts | 184° |
| 2026-04-23 23:12 | 24.33575 | 54.91177 | 3522 ft | 231 kts | 208° |
| 2026-04-23 23:12 | 24.32369 | 54.90119 | 3390 ft | 223 kts | 229° |
| 2026-04-23 23:12 | 24.31405 | 54.88832 | 3284 ft | 215 kts | 230° |
| 2026-04-23 23:12 | 24.30469 | 54.87586 | 3169 ft | 208 kts | 230° |
| 2026-04-23 23:13 | 24.29654 | 54.86314 | 3070 ft | 203 kts | 249° |
| 2026-04-23 23:13 | 24.29548 | 54.84800 | 2991 ft | 201 kts | 286° |
| 2026-04-23 23:13 | 24.30227 | 54.83479 | 3001 ft | 201 kts | 308° |
| 2026-04-23 23:13 | 24.31098 | 54.82270 | 2994 ft | 202 kts | 309° |
| 2026-04-23 23:14 | 24.31965 | 54.81063 | 2996 ft | 198 kts | 308° |
| 2026-04-23 23:14 | 24.32788 | 54.79909 | 2879 ft | 188 kts | 309° |
| 2026-04-23 23:14 | 24.33580 | 54.78797 | 2662 ft | 183 kts | 309° |
| 2026-04-23 23:14 | 24.34354 | 54.77710 | 2439 ft | 178 kts | 309° |
| 2026-04-23 23:15 | 24.35096 | 54.76667 | 2223 ft | 169 kts | 309° |
| 2026-04-23 23:15 | 24.35802 | 54.75675 | 2017 ft | 161 kts | 310° |
| 2026-04-23 23:15 | 24.36467 | 54.74739 | 1833 ft | 152 kts | 311° |
| 2026-04-23 23:15 | 24.36895 | 54.74139 | 1682 ft | 149 kts | 312° |
| 2026-04-23 23:16 | 24.37733 | 54.72963 | 1380 ft | 147 kts | 311° |
| 2026-04-23 23:16 | 24.38349 | 54.72077 | 1229 ft | 146 kts | 310° |
| 2026-04-23 23:16 | 24.38959 | 54.71200 | 1038 ft | 143 kts | 310° |
| 2026-04-23 23:16 | 24.39574 | 54.70348 | 884 ft | 141 kts | 311° |
| 2026-04-23 23:17 | 24.40181 | 54.69517 | 732 ft | 136 kts | 310° |
| 2026-04-23 23:17 | 24.40573 | 54.68957 | 621 ft | 137 kts | 310° |
| 2026-04-23 23:17 | 24.41150 | 54.68138 | 441 ft | 135 kts | 311° |
| 2026-04-23 23:17 | 24.41729 | 54.67336 | 276 ft | 135 kts | 311° |
| 2026-04-23 23:18 | 24.42294 | 54.66530 | 59 ft | 131 kts | 311° |
| 2026-04-23 23:18 | 24.42773 | 54.65864 | 54 ft | 88 kts | 308° |
| 2026-04-23 23:18 | 24.43068 | 54.65449 | 55 ft | 53 kts | 308° |
| 2026-04-23 23:18 | 24.43274 | 54.65161 | 56 ft | 39 kts | 308° |
| 2026-04-23 23:19 | 24.43388 | 54.64925 | 57 ft | 33 kts | 283° |
| 2026-04-23 23:19 | 24.43416 | 54.64736 | 60 ft | 24 kts | 279° |
| 2026-04-23 23:19 | 24.43431 | 54.64602 | 60 ft | 16 kts | 277° |
| 2026-04-23 23:19 | 24.43444 | 54.64472 | 55 ft | 18 kts | 266° |
| 2026-04-23 23:20 | 24.43373 | 54.64375 | 58 ft | 15 kts | 218° |
| 2026-04-23 23:20 | 24.43300 | 54.64313 | 55 ft | 13 kts | 217° |
| 2026-04-23 23:20 | 24.43230 | 54.64330 | 57 ft | 11 kts | 131° |
| 2026-04-23 23:20 | 24.43185 | 54.64392 | 57 ft | 10 kts | 127° |
| 2026-04-23 23:21 | 24.43144 | 54.64443 | 57 ft | 8 kts | 155° |
| 2026-04-23 23:21 | 24.43103 | 54.64412 | 59 ft | 8 kts | 236° |
| 2026-04-23 23:21 | 24.43064 | 54.64376 | 56 ft | 5 kts | 217° |
| 2026-04-23 23:21 | 24.43056 | 54.64369 | 52 ft | 0 kts | 217° |